createdAt,value
2019-06-01T00:02:01.839Z,101259.81
2019-06-01T00:07:04.314Z,101262.00
2019-06-01T00:12:06.832Z,101255.45
2019-06-01T00:17:09.265Z,101250.53
2019-06-01T00:22:11.735Z,101251.31
2019-06-01T00:27:14.191Z,101249.48
2019-06-01T00:32:16.670Z,101249.12
2019-06-01T00:37:19.122Z,101245.58
2019-06-01T00:42:21.589Z,101246.98
2019-06-01T00:47:24.059Z,101242.58
2019-06-01T00:52:26.513Z,101243.17
2019-06-01T00:57:28.964Z,101239.39
2019-06-01T01:02:31.408Z,101242.78
2019-06-01T01:07:33.876Z,101230.55
2019-06-01T01:12:36.323Z,101234.91
2019-06-01T01:17:38.791Z,101238.86
2019-06-01T01:22:41.282Z,101241.61
2019-06-01T01:27:43.747Z,101235.07
2019-06-01T01:32:47.380Z,101234.47
2019-06-01T01:37:49.944Z,101237.64
2019-06-01T01:42:52.271Z,101241.77
2019-06-01T01:47:53.589Z,101234.67
2019-06-01T01:52:57.019Z,101237.61
2019-06-01T01:57:59.545Z,101238.55
2019-06-01T02:03:02.291Z,101238.95
2019-06-01T02:08:03.430Z,101240.89
2019-06-01T02:13:05.891Z,101236.55
2019-06-01T02:18:08.359Z,101237.52
2019-06-01T02:23:10.835Z,101239.09
2019-06-01T02:28:13.304Z,101229.98
2019-06-01T02:33:15.757Z,101230.73
2019-06-01T02:38:18.222Z,101223.78
2019-06-01T02:43:20.664Z,101221.13
2019-06-01T02:48:23.125Z,101224.03
2019-06-01T02:53:25.573Z,101224.56
2019-06-01T02:58:28.039Z,101227.91
2019-06-01T03:03:30.503Z,101232.02
2019-06-01T03:08:32.956Z,101240.28
2019-06-01T03:13:35.566Z,101236.93
2019-06-01T03:18:38.030Z,101239.44
2019-06-01T03:23:40.496Z,101234.41
2019-06-01T03:28:42.974Z,101222.20
2019-06-01T03:33:45.445Z,101226.17
2019-06-01T03:38:47.917Z,101222.25
2019-06-01T03:43:50.423Z,101224.03
2019-06-01T03:48:52.905Z,101228.28
2019-06-01T03:53:55.380Z,101227.42
2019-06-01T03:58:57.899Z,101223.78
2019-06-01T04:04:00.932Z,101228.22
2019-06-01T04:09:03.528Z,101223.95
2019-06-01T04:14:05.601Z,101223.78
2019-06-01T04:19:08.043Z,101227.00
2019-06-01T04:24:10.325Z,101227.59
2019-06-01T04:29:12.715Z,101226.37
2019-06-01T04:34:15.097Z,101228.12
2019-06-01T04:39:17.546Z,101227.07
2019-06-01T04:44:20.002Z,101225.06
2019-06-01T04:49:22.470Z,101225.73
2019-06-01T04:54:24.949Z,101223.87
2019-06-01T04:59:27.401Z,101225.18
2019-06-01T05:04:29.866Z,101233.28
2019-06-01T05:09:32.331Z,101238.50
2019-06-01T05:14:34.785Z,101243.78
2019-06-01T05:19:37.256Z,101253.42
2019-06-01T05:24:39.708Z,101263.08
2019-06-01T05:29:42.172Z,101254.88
2019-06-01T05:34:44.792Z,101258.22
2019-06-01T05:39:47.261Z,101257.13
2019-06-01T05:44:49.715Z,101258.80
2019-06-01T05:49:52.174Z,101256.18
2019-06-01T05:54:54.725Z,101260.55
2019-06-01T05:59:57.190Z,101263.09
2019-06-01T06:04:59.663Z,101267.42
2019-06-01T06:10:02.385Z,101268.81
2019-06-01T06:15:04.712Z,101263.94
2019-06-01T06:20:07.190Z,101268.52
2019-06-01T06:25:09.736Z,101271.16
2019-06-01T06:30:12.807Z,101273.28
2019-06-01T06:35:15.344Z,101270.87
2019-06-01T06:40:18.002Z,101271.88
2019-06-01T06:45:20.762Z,101268.47
2019-06-01T06:50:23.461Z,101267.95
2019-06-01T06:55:24.747Z,101271.08
2019-06-01T07:00:27.237Z,101266.50
2019-06-01T07:05:31.450Z,101272.52
2019-06-01T07:10:32.174Z,101269.17
2019-06-01T07:15:34.613Z,101267.21
2019-06-01T07:20:37.092Z,101272.98
2019-06-01T07:25:39.544Z,101267.22
2019-06-01T07:30:50.348Z,101265.20
2019-06-01T07:35:44.483Z,101266.14
2019-06-01T07:40:46.982Z,101252.67
2019-06-01T07:45:49.418Z,101261.27
2019-06-01T07:50:51.878Z,101255.57
2019-06-01T07:55:54.460Z,101260.53
2019-06-01T08:00:56.925Z,101255.94
2019-06-01T08:05:59.386Z,101256.48
2019-06-01T08:11:01.869Z,101254.50
2019-06-01T08:16:04.423Z,101253.44
2019-06-01T08:21:06.890Z,101250.30
2019-06-01T08:26:09.515Z,101247.38
2019-06-01T08:31:11.851Z,101242.59
2019-06-01T08:36:15.027Z,101241.28
2019-06-01T08:41:17.467Z,101241.09
2019-06-01T08:46:19.937Z,101234.33
2019-06-01T08:51:23.820Z,101224.16
2019-06-01T08:56:26.072Z,101219.58
2019-06-01T09:01:28.625Z,101212.13
2019-06-01T09:06:30.970Z,101212.06
2019-06-01T09:11:33.286Z,101207.48
2019-06-01T09:16:35.984Z,101204.33
2019-06-01T09:21:37.373Z,101199.16
2019-06-01T09:26:39.852Z,101184.68
2019-06-01T09:31:42.370Z,101174.57
2019-06-01T09:36:44.821Z,101196.31
2019-06-01T09:41:47.286Z,101186.01
2019-06-01T09:46:49.756Z,101166.38
2019-06-01T09:51:52.251Z,101155.69
2019-06-01T09:56:54.747Z,101154.70
2019-06-01T10:01:57.273Z,101150.73
2019-06-01T10:06:59.723Z,101148.25
2019-06-01T10:12:02.178Z,101135.83
2019-06-01T10:17:04.629Z,101123.20
2019-06-01T10:22:07.099Z,101120.88
2019-06-01T10:27:09.587Z,101122.08
2019-06-01T10:32:12.200Z,101117.90
2019-06-01T10:37:14.646Z,101113.31
2019-06-01T10:42:17.108Z,101118.33
2019-06-01T10:47:19.565Z,101117.56
2019-06-01T10:52:22.031Z,101118.38
2019-06-01T10:57:24.511Z,101103.03
2019-06-01T11:02:26.995Z,101098.20
2019-06-01T11:07:29.754Z,101104.51
2019-06-01T11:12:32.974Z,101102.53
2019-06-01T11:17:34.940Z,101100.02
2019-06-01T11:22:37.598Z,101091.37
2019-06-01T11:27:39.807Z,101093.23
2019-06-01T11:32:43.630Z,101084.34
2019-06-01T11:37:44.660Z,101075.88
2019-06-01T11:42:47.125Z,101071.84
2019-06-01T11:47:49.586Z,101069.22
2019-06-01T11:52:52.068Z,101059.53
2019-06-01T11:57:54.516Z,101056.53
2019-06-01T12:02:56.981Z,101046.75
2019-06-01T12:07:59.445Z,101039.71
2019-06-01T12:13:02.586Z,101043.11
2019-06-01T12:18:05.042Z,101028.30
2019-06-01T12:23:07.558Z,101023.49
2019-06-01T12:28:09.967Z,101023.11
2019-06-01T12:33:12.470Z,101015.66
2019-06-01T12:38:15.216Z,101026.80
2019-06-01T12:43:17.695Z,101020.83
2019-06-01T12:48:20.182Z,101011.84
2019-06-01T12:53:22.666Z,101004.90
2019-06-01T12:58:25.394Z,100993.76
2019-06-01T13:03:27.852Z,100988.61
2019-06-01T13:08:30.325Z,100982.55
2019-06-01T13:13:32.780Z,100974.86
2019-06-01T13:18:35.258Z,100964.23
2019-06-01T13:23:37.730Z,100955.53
2019-06-01T13:28:40.210Z,100941.77
2019-06-01T13:33:42.696Z,100945.31
2019-06-01T13:38:45.201Z,100943.09
2019-06-01T13:43:47.687Z,100934.23
2019-06-01T13:48:50.148Z,100932.52
2019-06-01T13:53:52.988Z,100914.03
2019-06-01T13:58:55.079Z,100910.69
2019-06-01T14:03:57.555Z,100905.55
2019-06-01T14:09:00.010Z,100911.20
2019-06-01T14:14:02.490Z,100911.30
2019-06-01T14:19:06.855Z,100906.42
2019-06-01T14:24:07.492Z,100905.47
2019-06-01T14:29:09.956Z,100911.40
2019-06-01T14:34:12.424Z,100899.86
2019-06-01T14:39:14.889Z,100890.33
2019-06-01T14:44:17.361Z,100890.70
2019-06-01T14:49:19.826Z,100887.27
2019-06-01T14:54:22.329Z,100885.92
2019-06-01T14:59:25.280Z,100880.20
2019-06-01T15:04:27.750Z,100874.08
2019-06-01T15:09:30.228Z,100867.16
2019-06-01T15:14:32.708Z,100859.22
2019-06-01T15:19:35.172Z,100861.71
2019-06-01T15:24:37.651Z,100864.44
2019-06-01T15:29:40.138Z,100855.45
2019-06-01T15:34:42.595Z,100848.92
2019-06-01T15:39:45.076Z,100854.09
2019-06-01T15:44:47.550Z,100848.20
2019-06-01T15:49:49.994Z,100843.83
2019-06-01T15:54:52.465Z,100842.00
2019-06-01T15:59:54.962Z,100836.97
2019-06-01T16:04:57.425Z,100830.60
2019-06-01T16:09:59.905Z,100830.63
2019-06-01T16:15:02.371Z,100835.20
2019-06-01T16:20:07.570Z,100833.64
2019-06-01T16:25:10.107Z,100827.77
2019-06-01T16:30:12.583Z,100829.48
2019-06-01T16:35:15.237Z,100823.61
2019-06-01T16:40:17.676Z,100826.58
2019-06-01T16:45:20.144Z,100815.36
2019-06-01T16:50:22.610Z,100807.66
2019-06-01T16:55:25.250Z,100811.03
2019-06-01T17:00:27.705Z,100808.02
2019-06-01T17:05:30.179Z,100795.20
2019-06-01T17:10:32.631Z,100799.16
2019-06-01T17:15:35.097Z,100805.73
2019-06-01T17:20:43.264Z,100806.08
2019-06-01T17:25:45.714Z,100802.98
2019-06-01T17:30:48.354Z,100792.02
2019-06-01T17:35:50.658Z,100796.35
2019-06-01T17:40:53.203Z,100804.49
2019-06-01T17:45:55.588Z,100793.30
2019-06-01T17:50:58.047Z,100790.42
2019-06-01T17:56:01.857Z,100784.95
2019-06-01T18:01:04.258Z,100792.27
2019-06-01T18:06:05.883Z,100795.91
2019-06-01T18:11:08.188Z,100785.11
2019-06-01T18:16:10.542Z,100783.86
2019-06-01T18:21:13.036Z,100783.73
2019-06-01T18:26:15.552Z,100784.86
2019-06-01T18:31:18.011Z,100779.89
2019-06-01T18:36:20.463Z,100783.69
2019-06-01T18:41:22.965Z,100780.22
2019-06-01T18:46:25.640Z,100782.52
2019-06-01T18:51:28.103Z,100789.04
2019-06-01T18:56:30.563Z,100791.69
2019-06-01T19:01:33.146Z,100783.80
2019-06-01T19:06:35.650Z,100776.64
2019-06-01T19:11:38.103Z,100780.92
2019-06-01T19:16:40.639Z,100783.98
2019-06-01T19:21:43.139Z,100778.56
2019-06-01T19:26:45.607Z,100787.59
2019-06-01T19:31:48.055Z,100798.55
2019-06-01T19:36:50.534Z,100807.73
2019-06-01T19:41:53.048Z,100805.95
2019-06-01T19:46:55.664Z,100810.41
2019-06-01T19:51:58.136Z,100812.08
2019-06-01T19:57:00.602Z,100814.02
2019-06-01T20:02:03.059Z,100818.14
2019-06-01T20:07:05.672Z,100823.59
2019-06-01T20:12:12.887Z,100823.62
2019-06-01T20:17:11.725Z,100825.04
2019-06-01T20:22:13.139Z,100823.14
2019-06-01T20:27:15.595Z,100819.87
2019-06-01T20:32:18.180Z,100821.39
2019-06-01T20:37:20.635Z,100815.56
2019-06-01T20:42:32.077Z,100821.05
2019-06-01T20:47:25.653Z,100818.56
2019-06-01T20:52:28.268Z,100823.13
2019-06-01T20:57:30.750Z,100818.82
2019-06-01T21:02:33.212Z,100820.37
2019-06-01T21:07:35.705Z,100827.25
2019-06-01T21:12:46.218Z,100822.38
2019-06-01T21:17:40.674Z,100816.07
2019-06-01T21:22:43.146Z,100816.47
2019-06-01T21:27:45.625Z,100814.67
2019-06-01T21:32:48.135Z,100817.91
2019-06-01T21:37:50.589Z,100819.73
2019-06-01T21:43:03.207Z,100823.55
2019-06-01T21:47:55.626Z,100819.55
2019-06-01T21:52:58.090Z,100819.97
2019-06-01T21:58:00.565Z,100817.77
2019-06-01T22:03:03.038Z,100817.25
2019-06-01T22:08:05.495Z,100812.52
2019-06-01T22:13:18.309Z,100810.80
2019-06-01T22:18:10.504Z,100807.81
2019-06-01T22:23:12.942Z,100805.14
2019-06-01T22:28:15.414Z,100810.58
2019-06-01T22:33:20.079Z,100798.09
2019-06-01T22:38:21.392Z,100805.03
2019-06-01T22:43:39.272Z,100802.25
2019-06-01T22:48:26.607Z,100804.46
2019-06-01T22:53:28.311Z,100806.50
2019-06-01T22:58:31.542Z,100797.84
2019-06-01T23:03:32.768Z,100791.06
2019-06-01T23:08:35.242Z,100790.56
2019-06-01T23:13:52.385Z,100789.70
2019-06-01T23:18:40.136Z,100782.84
2019-06-01T23:23:42.612Z,100782.10
2019-06-01T23:28:45.064Z,100780.44
2019-06-01T23:33:47.556Z,100776.59
2019-06-01T23:38:50.015Z,100770.21
2019-06-01T23:44:07.795Z,100765.87
2019-06-01T23:48:54.969Z,100758.08
2019-06-01T23:53:57.444Z,100762.95
2019-06-01T23:58:59.908Z,100762.43
